Time;durP1;ratioP1;P1;durP2;ratioP2;P2;SDS_P1;SDS_P2;PMS_P1;PMS_P2;Temp;Humidity;BMP_temperature;BMP_pressure;BME280_temperature;BME280_humidity;BME280_pressure;Samples;Min_cycle;Max_cycle;Signal;HPM_P1;HPM_P2
2023/09/03 00:00:41;;;;;;;2.40;1.50;;;;;;;24.53;86.92;99867.97;5112833;28;20186;-72
2023/09/03 00:03:08;;;;;;;1.43;1.10;;;;;;;24.57;86.38;99864.16;5113065;28;20191;-73
2023/09/03 00:05:35;;;;;;;1.47;1.47;;;;;;;24.60;86.75;99869.13;5111783;28;20210;-72
2023/09/03 00:08:03;;;;;;;1.73;1.63;;;;;;;24.59;86.89;99862.22;5113258;28;20642;-74
2023/09/03 00:10:34;;;;;;;2.20;1.70;;;;;;;24.59;86.60;99862.22;5112710;28;20677;-73
2023/09/03 00:13:03;;;;;;;1.80;1.20;;;;;;;24.61;86.49;99865.56;5113237;28;20216;-73
2023/09/03 00:15:30;;;;;;;2.40;1.20;;;;;;;24.62;86.66;99872.47;5112774;28;20273;-73
2023/09/03 00:17:57;;;;;;;1.20;1.20;;;;;;;24.61;86.01;99881.31;5117974;27;20198;-73
2023/09/03 00:20:24;;;;;;;3.97;1.57;;;;;;;24.53;86.03;99879.28;5112715;27;20726;-72
2023/09/03 00:22:51;;;;;;;1.50;1.40;;;;;;;24.39;87.11;99886.59;5112761;28;20183;-73
2023/09/03 00:25:17;;;;;;;1.70;1.60;;;;;;;24.29;87.60;99875.16;5112101;28;20187;-72
2023/09/03 00:27:46;;;;;;;1.93;1.83;;;;;;;24.25;88.35;99878.97;5112748;28;20681;-73
2023/09/03 00:30:13;;;;;;;1.30;1.20;;;;;;;24.22;87.86;99876.59;5112317;28;20753;-72
2023/09/03 00:32:40;;;;;;;1.50;1.50;;;;;;;24.21;88.88;99877.56;5112413;28;20206;-73
2023/09/03 00:35:07;;;;;;;5.03;1.90;;;;;;;24.20;88.46;99889.00;5112464;27;20566;-73
2023/09/03 00:37:34;;;;;;;1.77;1.67;;;;;;;24.21;88.29;99878.38;5112520;27;20191;-73
2023/09/03 00:40:02;;;;;;;2.10;1.93;;;;;;;24.23;87.97;99886.13;5112769;28;20223;-73
2023/09/03 00:42:28;;;;;;;2.30;1.70;;;;;;;24.21;87.92;99877.56;5111783;28;20209;-72
2023/09/03 00:44:57;;;;;;;2.37;1.60;;;;;;;24.23;87.71;99875.66;5112082;28;20207;-73
2023/09/03 00:47:24;;;;;;;1.80;1.70;;;;;;;24.24;87.13;99878.16;5112102;28;20232;-73
2023/09/03 00:49:51;;;;;;;1.70;1.60;;;;;;;24.26;87.19;99880.66;5116988;27;20190;-73
2023/09/03 00:52:19;;;;;;;1.83;1.63;;;;;;;24.22;87.71;99868.75;5111955;28;20285;-72
2023/09/03 00:54:46;;;;;;;1.83;1.73;;;;;;;24.18;87.62;99852.44;5111405;28;20187;-73
2023/09/03 00:57:13;;;;;;;1.43;1.40;;;;;;;24.16;87.19;99861.38;5115235;27;20737;-73
2023/09/03 00:59:41;;;;;;;1.60;1.50;;;;;;;24.15;87.56;99862.31;5112084;28;20206;-73
2023/09/03 01:02:13;;;;;;;1.27;1.27;;;;;;;24.13;88.13;99859.84;5109278;28;20185;-73
2023/09/03 01:04:40;;;;;;;1.70;1.63;;;;;;;24.13;87.75;99859.00;5112244;28;20277;-72
2023/09/03 01:07:08;;;;;;;1.80;1.53;;;;;;;24.10;87.82;99854.81;5111613;28;20187;-73
2023/09/03 01:09:35;;;;;;;1.57;1.47;;;;;;;24.03;88.11;99853.63;5112118;28;20203;-73
2023/09/03 01:12:11;;;;;;;1.47;1.40;;;;;;;24.01;88.57;99851.09;5111637;28;20201;-73
2023/09/03 01:14:43;;;;;;;1.93;1.83;;;;;;;24.01;89.12;99852.88;5113837;27;20201;-73
2023/09/03 01:17:18;;;;;;;1.63;1.40;;;;;;;23.98;88.46;99846.09;5111299;28;20193;-72
2023/09/03 01:20:06;;;;;;;2.10;2.00;;;;;;;23.93;89.03;99848.25;5108003;28;20216;-72
2023/09/03 01:22:58;;;;;;;1.33;1.20;;;;;;;23.91;89.22;99849.34;5110433;28;20183;-72
2023/09/03 01:25:41;;;;;;;1.33;1.33;;;;;;;23.87;89.53;99840.06;5111295;28;20208;-74
2023/09/03 01:28:21;;;;;;;1.97;1.87;;;;;;;23.84;89.29;99838.50;5111491;28;20191;-74
2023/09/03 01:30:50;;;;;;;6.37;1.70;;;;;;;23.82;89.25;99836.94;5107772;28;20187;-74
2023/09/03 01:33:17;;;;;;;1.57;1.47;;;;;;;23.83;89.39;99842.06;5110982;28;20194;-74
2023/09/03 01:35:45;;;;;;;1.50;1.30;;;;;;;23.81;89.77;99843.16;5111765;28;20198;-73
2023/09/03 01:38:12;;;;;;;1.43;1.40;;;;;;;23.75;90.29;99833.97;5111058;28;20194;-73
2023/09/03 01:40:40;;;;;;;1.83;1.53;;;;;;;23.71;90.54;99843.03;5111398;28;20222;-74
2023/09/03 01:43:07;;;;;;;1.17;1.17;;;;;;;23.67;90.46;99846.81;5110946;28;20195;-74
2023/09/03 01:45:44;;;;;;;1.20;1.20;;;;;;;23.64;90.86;99846.22;5111547;28;20214;-73
2023/09/03 01:48:18;;;;;;;2.30;2.20;;;;;;;23.49;92.02;99842.97;5110957;28;20221;-73
2023/09/03 01:50:53;;;;;;;1.47;1.40;;;;;;;23.45;92.68;99839.78;5111287;28;20229;-73
2023/09/03 01:53:35;;;;;;;1.70;1.60;;;;;;;23.48;92.77;99841.34;5110698;28;20581;-73
2023/09/03 01:56:03;;;;;;;1.90;1.80;;;;;;;23.43;92.84;99833.00;5111403;28;20202;-73
2023/09/03 01:58:33;;;;;;;2.00;1.90;;;;;;;23.46;93.09;99840.59;5111012;28;20183;-73
2023/09/03 02:01:03;;;;;;;5.40;1.30;;;;;;;23.43;93.16;99833.81;5111038;28;20281;-74
2023/09/03 02:03:32;;;;;;;1.77;1.70;;;;;;;23.47;92.80;99844.91;5107497;28;20190;-74
2023/09/03 02:05:59;;;;;;;1.77;1.67;;;;;;;23.45;92.84;99831.09;5117951;27;20189;-73
2023/09/03 02:08:25;;;;;;;1.70;1.70;;;;;;;23.45;92.64;99833.72;5110537;27;20223;-73
2023/09/03 02:10:52;;;;;;;1.83;1.73;;;;;;;23.44;92.40;99839.91;5110936;28;20301;-73
2023/09/03 02:13:19;;;;;;;1.37;1.37;;;;;;;23.44;92.24;99845.13;5110661;28;20194;-73
2023/09/03 02:15:46;;;;;;;2.20;2.10;;;;;;;23.35;91.81;99830.94;5110994;28;20187;-75
2023/09/03 02:18:16;;;;;;;2.00;1.90;;;;;;;23.43;91.22;99838.22;5110664;28;20190;-74
2023/09/03 02:20:43;;;;;;;1.93;1.80;;;;;;;23.37;91.29;99844.72;5107498;28;20206;-73
2023/09/03 02:23:09;;;;;;;5.13;1.87;;;;;;;23.25;92.33;99831.75;5110577;28;20221;-73
2023/09/03 02:25:36;;;;;;;2.70;1.90;;;;;;;23.08;93.48;99832.16;5110875;28;20265;-73
2023/09/03 02:28:03;;;;;;;1.73;1.63;;;;;;;22.96;94.26;99834.75;5110626;28;20673;-74
2023/09/03 02:30:30;;;;;;;2.00;1.27;;;;;;;22.91;94.76;99836.03;5110042;28;20187;-73
2023/09/03 02:32:57;;;;;;;1.93;1.83;;;;;;;22.90;95.03;99840.44;5110790;28;20256;-74
2023/09/03 02:35:25;;;;;;;2.43;2.33;;;;;;;22.90;95.13;99834.38;5110139;28;20187;-73
2023/09/03 02:37:52;;;;;;;1.80;1.70;;;;;;;22.85;95.16;99839.94;5110999;28;20183;-73
2023/09/03 02:40:20;;;;;;;2.07;1.97;;;;;;;22.79;95.31;99840.38;5110609;28;20225;-75
2023/09/03 02:42:46;;;;;;;1.53;1.53;;;;;;;22.66;95.99;99830.94;5110895;28;20199;-73
2023/09/03 02:45:13;;;;;;;2.37;2.17;;;;;;;22.69;95.96;99834.16;5110715;28;20195;-73
2023/09/03 02:47:40;;;;;;;2.20;1.97;;;;;;;22.65;96.19;99834.50;5110296;28;20225;-73
2023/09/03 02:50:08;;;;;;;1.63;1.53;;;;;;;22.64;96.90;99833.66;5110280;28;20202;-73
2023/09/03 02:52:36;;;;;;;2.10;1.80;;;;;;;22.62;96.60;99829.50;5109950;28;20179;-73
2023/09/03 02:55:03;;;;;;;1.77;1.63;;;;;;;22.62;96.28;99835.53;5110203;28;20667;-73
2023/09/03 02:57:30;;;;;;;2.50;2.37;;;;;;;22.58;96.24;99831.50;5107343;28;20757;-74
2023/09/03 02:59:57;;;;;;;2.00;1.90;;;;;;;22.58;96.38;99839.31;5110365;28;20253;-75
2023/09/03 03:02:24;;;;;;;6.80;2.40;;;;;;;22.52;95.29;99834.50;5110277;28;20717;-73
2023/09/03 03:04:51;;;;;;;2.10;1.93;;;;;;;22.45;94.95;99828.94;5110031;28;20282;-74
2023/09/03 03:07:18;;;;;;;1.60;1.50;;;;;;;22.41;94.61;99837.09;5109823;28;20764;-73
2023/09/03 03:09:51;;;;;;;4.00;2.30;;;;;;;22.31;94.71;99826.47;5110277;28;20574;-73
2023/09/03 03:12:18;;;;;;;1.90;1.80;;;;;;;22.32;94.94;99833.38;5110053;28;20222;-73
2023/09/03 03:14:45;;;;;;;2.10;2.00;;;;;;;22.34;95.45;99841.06;5109818;28;20209;-73
2023/09/03 03:17:12;;;;;;;2.17;2.13;;;;;;;22.32;94.71;99840.38;5113898;27;20664;-73
2023/09/03 03:19:39;;;;;;;2.60;2.40;;;;;;;22.33;94.52;99839.41;5113706;28;20210;-73
2023/09/03 03:22:06;;;;;;;1.90;1.80;;;;;;;22.33;94.70;99828.94;5113527;28;20543;-74
2023/09/03 03:24:33;;;;;;;2.70;2.50;;;;;;;22.36;94.10;99833.94;5114143;27;20752;-73
2023/09/03 03:27:01;;;;;;;1.77;1.67;;;;;;;22.37;94.14;99835.63;5114217;28;20628;-73
2023/09/03 03:29:28;;;;;;;1.77;1.67;;;;;;;22.35;94.16;99832.31;5113422;28;20190;-73
2023/09/03 03:31:55;;;;;;;2.03;1.93;;;;;;;22.35;94.00;99837.53;5120226;27;20179;-73
2023/09/03 03:34:22;;;;;;;2.37;2.17;;;;;;;22.33;93.46;99839.41;5114177;27;20195;-73
2023/09/03 03:36:49;;;;;;;2.23;2.13;;;;;;;22.33;93.58;99847.22;5114035;28;20195;-73
2023/09/03 03:39:16;;;;;;;2.50;2.37;;;;;;;22.32;93.82;99853.44;5113538;28;20183;-73
2023/09/03 03:41:42;;;;;;;3.07;1.57;;;;;;;22.31;93.76;99852.59;5113505;28;20187;-74
2023/09/03 03:44:11;;;;;;;2.93;1.70;;;;;;;22.31;93.58;99847.34;5113837;28;20199;-73
2023/09/03 03:46:38;;;;;;;2.17;2.07;;;;;;;22.32;93.64;99856.03;5113484;28;20187;-73
2023/09/03 03:49:05;;;;;;;2.60;2.40;;;;;;;22.31;93.56;99849.13;5113240;27;20612;-74
2023/09/03 03:51:32;;;;;;;2.57;1.90;;;;;;;22.23;93.31;99827.97;5111947;28;20191;-73
2023/09/03 03:54:03;;;;;;;2.87;2.50;;;;;;;22.28;93.03;99844.97;5111340;28;20261;-73
2023/09/03 03:56:30;;;;;;;2.50;2.40;;;;;;;22.26;92.42;99846.84;5113706;28;20285;-73
2023/09/03 03:58:57;;;;;;;2.40;2.30;;;;;;;22.26;92.64;99851.25;5113345;28;20195;-74
2023/09/03 04:01:25;;;;;;;2.20;2.10;;;;;;;22.23;92.36;99852.28;5112905;27;20207;-73
2023/09/03 04:03:53;;;;;;;2.50;2.37;;;;;;;22.22;92.16;99849.78;5113310;28;21663;-73
2023/09/03 04:06:20;;;;;;;2.30;2.20;;;;;;;22.22;91.89;99855.00;5113240;28;20205;-73
2023/09/03 04:08:48;;;;;;;1.87;1.77;;;;;;;22.20;92.33;99851.66;5113357;28;20257;-74
2023/09/03 04:11:19;;;;;;;2.53;2.33;;;;;;;22.18;92.00;99849.16;5117956;27;20676;-73
2023/09/03 04:13:46;;;;;;;1.83;1.80;;;;;;;22.17;92.28;99851.88;5113191;28;20194;-73
2023/09/03 04:16:15;;;;;;;5.50;2.20;;;;;;;22.14;92.28;99854.72;5112502;27;20191;-73
2023/09/03 04:18:43;;;;;;;1.40;1.40;;;;;;;22.12;92.68;99851.38;5112757;28;20210;-73
2023/09/03 04:21:10;;;;;;;2.20;2.10;;;;;;;22.07;92.63;99845.66;5111961;28;20288;-73
2023/09/03 04:23:37;;;;;;;2.67;2.47;;;;;;;22.06;92.37;99851.81;5113175;28;20198;-73
2023/09/03 04:26:05;;;;;;;2.50;2.40;;;;;;;22.04;92.92;99849.28;5112614;28;20187;-76
2023/09/03 04:28:32;;;;;;;2.40;2.30;;;;;;;22.03;93.25;99846.81;5107104;28;20185;-72
2023/09/03 04:31:00;;;;;;;2.90;2.70;;;;;;;22.05;93.20;99840.53;5111911;28;20197;-71
2023/09/03 04:33:28;;;;;;;2.40;2.20;;;;;;;22.08;92.98;99839.47;5112337;27;20247;-72
2023/09/03 04:35:58;;;;;;;2.50;2.30;;;;;;;22.12;93.01;99835.72;5111563;28;20201;-73
2023/09/03 04:38:25;;;;;;;1.77;1.67;;;;;;;22.13;92.25;99838.22;5111793;28;20183;-72
2023/09/03 04:40:52;;;;;;;2.73;2.37;;;;;;;22.18;92.89;99833.50;5111722;28;20218;-72
2023/09/03 04:43:19;;;;;;;2.03;1.93;;;;;;;22.30;93.15;99823.94;5117089;27;20222;-72
2023/09/03 04:45:47;;;;;;;2.03;1.93;;;;;;;22.19;91.85;99787.34;5112405;27;20195;-72
2023/09/03 04:48:14;;;;;;;1.97;1.87;;;;;;;22.49;89.74;99832.97;5111628;28;20577;-72
2023/09/03 04:50:41;;;;;;;2.90;2.70;;;;;;;22.48;89.70;99817.41;5112360;27;20248;-72
2023/09/03 04:53:11;;;;;;;2.23;2.13;;;;;;;22.48;90.50;99813.03;5111790;28;20191;-72
2023/09/03 04:55:38;;;;;;;2.07;1.97;;;;;;;22.59;91.23;99807.00;5112815;28;20612;-71
2023/09/03 04:58:05;;;;;;;3.20;2.53;;;;;;;22.69;89.86;99813.25;5112225;28;20190;-72
2023/09/03 05:00:33;;;;;;;1.90;1.80;;;;;;;22.83;90.11;99807.84;5111849;28;20213;-71
2023/09/03 05:03:01;;;;;;;2.20;2.10;;;;;;;22.97;88.47;99794.56;5112412;28;20179;-72
2023/09/03 05:05:28;;;;;;;3.47;3.17;;;;;;;23.07;86.89;99794.72;5111182;27;20195;-72
2023/09/03 05:07:55;;;;;;;2.80;2.10;;;;;;;23.20;87.94;99807.72;5111713;28;20234;-72
2023/09/03 05:10:23;;;;;;;2.20;2.10;;;;;;;23.34;85.08;99800.47;5111950;28;20238;-72
2023/09/03 05:12:50;;;;;;;2.13;2.03;;;;;;;23.41;84.84;99804.34;5112638;27;20223;-73
2023/09/03 05:15:17;;;;;;;3.47;2.50;;;;;;;23.60;86.12;99803.75;5111913;28;20230;-72
2023/09/03 05:17:44;;;;;;;2.20;2.10;;;;;;;23.71;85.18;99797.69;5111184;28;20191;-72
2023/09/03 05:20:11;;;;;;;4.43;2.63;;;;;;;23.88;83.05;99805.88;5111366;28;20222;-72
2023/09/03 05:22:38;;;;;;;1.90;1.80;;;;;;;23.99;79.35;99810.28;5110886;28;20205;-74
2023/09/03 05:25:06;;;;;;;2.10;2.00;;;;;;;24.13;79.59;99812.69;5111945;28;20255;-74
2023/09/03 05:27:34;;;;;;;2.77;1.90;;;;;;;24.31;82.19;99811.19;5109394;28;20191;-75
2023/09/03 05:30:06;;;;;;;1.80;1.70;;;;;;;24.52;79.60;99812.06;5105899;28;20198;-74
2023/09/03 05:32:32;;;;;;;2.00;1.90;;;;;;;24.72;79.47;99807.84;5108381;28;20233;-72
2023/09/03 05:34:59;;;;;;;2.10;2.00;;;;;;;24.99;78.99;99802.97;5110063;27;20203;-72
2023/09/03 05:37:26;;;;;;;2.20;2.10;;;;;;;25.25;74.93;99808.66;5108754;28;20665;-72
2023/09/03 05:39:53;;;;;;;2.83;2.03;;;;;;;25.30;74.71;99795.16;5107984;28;20195;-72
2023/09/03 05:42:21;;;;;;;1.90;1.80;;;;;;;25.47;73.67;99797.16;5109409;28;20669;-72
2023/09/03 05:44:49;;;;;;;2.53;2.40;;;;;;;25.61;73.75;99794.22;5109145;28;20198;-72
2023/09/03 05:47:18;;;;;;;1.97;1.87;;;;;;;25.83;72.56;99801.91;5110399;28;20202;-72
2023/09/03 05:49:47;;;;;;;2.03;1.67;;;;;;;26.09;71.74;99804.91;5106363;28;20206;-73
2023/09/03 05:52:14;;;;;;;5.07;2.43;;;;;;;26.23;70.26;99801.09;5109200;28;20215;-73
2023/09/03 05:54:40;;;;;;;2.20;1.97;;;;;;;26.39;69.41;99802.22;5106515;28;20193;-73
2023/09/03 05:57:07;;;;;;;2.07;1.87;;;;;;;26.36;65.68;99799.88;5107268;28;20265;-72
2023/09/03 05:59:34;;;;;;;1.37;1.37;;;;;;;26.31;65.83;99801.22;5107516;28;20202;-72
2023/09/03 06:02:03;;;;;;;1.77;1.67;;;;;;;26.41;64.86;99799.44;5106781;28;20582;-75
2023/09/03 06:04:29;;;;;;;2.73;1.50;;;;;;;26.43;63.72;99797.53;5109227;28;20204;-71
2023/09/03 06:06:56;;;;;;;1.63;1.60;;;;;;;26.54;63.70;99802.63;5111238;27;20198;-72
2023/09/03 06:09:23;;;;;;;2.50;1.67;;;;;;;26.63;64.97;99799.19;5113984;27;20193;-72
2023/09/03 06:11:50;;;;;;;1.77;1.67;;;;;;;26.75;65.03;99798.09;5106920;28;20199;-73
2023/09/03 06:14:17;;;;;;;1.93;1.83;;;;;;;27.01;63.41;99804.44;5108183;27;20187;-72
2023/09/03 06:16:44;;;;;;;1.90;1.80;;;;;;;27.14;63.10;99809.44;5109815;28;20264;-73
2023/09/03 06:19:12;;;;;;;1.90;1.80;;;;;;;27.25;63.57;99811.06;5108639;28;20241;-72
2023/09/03 06:21:39;;;;;;;1.47;1.37;;;;;;;27.45;64.02;99812.69;5109206;28;20221;-72
2023/09/03 06:24:07;;;;;;;2.30;2.20;;;;;;;27.71;62.42;99808.44;5108778;28;20573;-73
2023/09/03 06:26:34;;;;;;;1.80;1.70;;;;;;;27.98;62.33;99818.19;5109705;28;20198;-71
2023/09/03 06:29:01;;;;;;;2.00;1.80;;;;;;;28.18;59.52;99819.75;5104383;28;20207;-73
2023/09/03 06:31:28;;;;;;;2.40;2.20;;;;;;;28.42;59.93;99820.00;5109631;28;20203;-72
2023/09/03 06:33:55;;;;;;;2.17;1.97;;;;;;;28.59;59.77;99805.16;5109669;28;20209;-72
2023/09/03 06:36:24;;;;;;;3.50;1.77;;;;;;;28.78;60.25;99810.31;5108437;28;20251;-72
2023/09/03 06:38:51;;;;;;;2.08;1.90;;;;;;;28.82;57.50;99816.94;5110297;28;20190;-72
2023/09/03 06:41:18;;;;;;;2.13;2.03;;;;;;;28.70;56.10;99814.69;5109624;28;20218;-72
2023/09/03 06:43:45;;;;;;;1.75;1.65;;;;;;;28.81;56.84;99825.84;5109359;28;20738;-71
2023/09/03 06:46:13;;;;;;;1.80;1.70;;;;;;;28.80;56.37;99826.81;5112559;27;20191;-72
2023/09/03 06:48:39;;;;;;;1.27;1.17;;;;;;;28.90;58.22;99817.00;5110766;28;20566;-71
2023/09/03 06:51:06;;;;;;;1.70;1.60;;;;;;;29.08;57.42;99812.53;5109711;28;20206;-73
2023/09/03 06:53:35;;;;;;;1.85;1.75;;;;;;;29.26;59.18;99815.16;5114425;27;20187;-74
2023/09/03 06:56:02;;;;;;;2.08;1.98;;;;;;;29.47;59.95;99817.41;5118314;27;20186;-71
2023/09/03 06:58:28;;;;;;;1.15;1.15;;;;;;;29.54;55.35;99821.94;5113585;27;20281;-70
2023/09/03 07:00:55;;;;;;;1.67;1.67;;;;;;;29.69;56.82;99817.72;5118016;27;20692;-73
2023/09/03 07:03:22;;;;;;;1.23;1.23;;;;;;;29.86;56.25;99823.94;5114788;27;20295;-72
2023/09/03 07:05:49;;;;;;;2.20;1.73;;;;;;;29.93;55.14;99818.84;5111583;28;20201;-72
2023/09/03 07:08:16;;;;;;;1.52;1.52;;;;;;;30.14;56.22;99816.63;5113660;28;20218;-72
2023/09/03 07:10:44;;;;;;;1.70;1.30;;;;;;;30.36;53.43;99815.16;5113468;28;20282;-72
2023/09/03 07:13:12;;;;;;;1.50;1.40;;;;;;;30.55;52.04;99820.19;5114105;27;20194;-72
2023/09/03 07:15:38;;;;;;;1.23;1.17;;;;;;;30.68;51.52;99820.53;5116758;27;20179;-72
2023/09/03 07:18:07;;;;;;;1.90;1.80;;;;;;;30.73;54.58;99808.47;5121314;27;20190;-72
2023/09/03 07:20:34;;;;;;;1.23;1.13;;;;;;;30.82;53.21;99817.25;5117762;27;20271;-72
2023/09/03 07:23:01;;;;;;;1.92;1.40;;;;;;;31.00;54.47;99825.88;5113674;28;20199;-74
2023/09/03 07:25:27;;;;;;;1.33;1.30;;;;;;;31.17;52.04;99822.22;5112708;28;20190;-73
2023/09/03 07:27:56;;;;;;;1.05;1.05;;;;;;;31.15;52.27;99812.75;5113617;28;20191;-72
2023/09/03 07:30:23;;;;;;;1.30;1.30;;;;;;;31.30;51.58;99815.56;5113650;28;20214;-72
2023/09/03 07:32:50;;;;;;;1.20;1.10;;;;;;;31.39;52.70;99814.56;5112877;28;20190;-72
2023/09/03 07:35:17;;;;;;;0.80;0.80;;;;;;;31.45;49.52;99820.00;5111987;28;20661;-72
2023/09/03 07:37:44;;;;;;;1.38;1.38;;;;;;;31.46;47.12;99815.53;5115812;27;20286;-72
2023/09/03 07:40:12;;;;;;;1.00;1.00;;;;;;;31.53;48.37;99821.84;5113204;27;20213;-72
2023/09/03 07:42:39;;;;;;;1.33;1.23;;;;;;;31.59;47.97;99813.22;5116386;27;20210;-73
2023/09/03 07:45:09;;;;;;;1.40;1.33;;;;;;;31.77;50.02;99819.09;5117361;27;20199;-73
2023/09/03 07:47:37;;;;;;;1.08;1.08;;;;;;;31.87;49.78;99814.44;5114267;27;20190;-72
2023/09/03 07:50:05;;;;;;;0.85;0.85;;;;;;;31.98;47.44;99806.09;5112316;27;20195;-72
2023/09/03 07:52:35;;;;;;;1.02;1.00;;;;;;;32.07;49.45;99807.75;5113905;27;20198;-72
2023/09/03 07:55:02;;;;;;;1.40;1.30;;;;;;;32.03;47.33;99793.13;5110041;28;21171;-72
2023/09/03 07:57:32;;;;;;;1.40;1.30;;;;;;;32.25;45.85;99807.47;5115113;27;20278;-73
2023/09/03 07:59:59;;;;;;;1.20;1.20;;;;;;;32.35;43.75;99812.53;5111056;27;20198;-73
2023/09/03 08:02:28;;;;;;;1.00;1.00;;;;;;;32.39;44.07;99813.84;5115339;27;20222;-74
2023/09/03 08:04:54;;;;;;;1.25;1.25;;;;;;;32.44;43.88;99808.84;5112974;27;20198;-73
2023/09/03 08:07:22;;;;;;;1.50;1.40;;;;;;;32.40;46.24;99815.50;5112719;27;20237;-76
2023/09/03 08:09:48;;;;;;;1.35;1.35;;;;;;;32.52;47.16;99796.34;5118608;27;20190;-74
2023/09/03 08:12:16;;;;;;;1.13;1.10;;;;;;;32.50;44.18;99808.16;5112885;27;20194;-74
2023/09/03 08:14:43;;;;;;;1.05;1.05;;;;;;;32.60;42.92;99803.47;5115179;27;20191;-73
2023/09/03 08:17:11;;;;;;;1.20;1.13;;;;;;;32.72;43.40;99804.69;5122856;27;20190;-73
2023/09/03 08:19:39;;;;;;;0.90;0.90;;;;;;;32.75;43.13;99806.97;5111802;28;20266;-73
2023/09/03 08:22:07;;;;;;;1.77;1.20;;;;;;;32.40;42.25;99751.81;5114733;27;20784;-73
2023/09/03 08:24:34;;;;;;;1.52;1.05;;;;;;;32.78;44.10;99801.31;5112857;27;20256;-75
2023/09/03 08:27:01;;;;;;;0.90;0.90;;;;;;;32.72;42.68;99808.16;5112402;27;20195;-73
2023/09/03 08:29:29;;;;;;;0.82;0.82;;;;;;;32.74;44.09;99814.13;5111702;28;20201;-74
2023/09/03 08:31:56;;;;;;;1.13;1.00;;;;;;;32.82;41.08;99805.28;5111862;27;20278;-73
2023/09/03 08:34:23;;;;;;;1.20;1.20;;;;;;;32.84;39.94;99800.59;5115466;27;20278;-73
2023/09/03 08:36:51;;;;;;;1.05;0.90;;;;;;;32.89;39.56;99800.91;5110842;28;20191;-74
2023/09/03 08:39:18;;;;;;;0.95;0.90;;;;;;;32.83;38.07;99801.59;5111128;27;20191;-73
2023/09/03 08:41:47;;;;;;;0.93;0.93;;;;;;;32.72;38.94;99796.72;5111863;27;20206;-74
2023/09/03 08:44:27;;;;;;;0.90;0.90;;;;;;;32.90;39.39;99791.91;5111052;28;20215;-74
2023/09/03 08:46:59;;;;;;;0.77;0.77;;;;;;;33.07;37.48;99788.09;5113921;27;20239;-74
2023/09/03 08:49:28;;;;;;;0.90;0.90;;;;;;;33.27;38.33;99793.75;5114341;27;20657;-76
2023/09/03 08:51:58;;;;;;;0.77;0.77;;;;;;;33.22;35.41;99780.16;5110348;28;20240;-74
2023/09/03 08:54:25;;;;;;;0.80;0.80;;;;;;;33.06;35.62;99786.44;5111348;28;20222;-75
2023/09/03 08:56:52;;;;;;;0.80;0.80;;;;;;;32.86;36.02;99789.81;5111306;28;20199;-75
2023/09/03 08:59:19;;;;;;;0.60;0.60;;;;;;;32.81;36.10;99761.13;5111481;28;20685;-74
2023/09/03 09:01:49;;;;;;;1.20;0.77;;;;;;;33.01;36.57;99772.88;5118451;27;20241;-74
2023/09/03 09:04:16;;;;;;;1.25;0.82;;;;;;;33.14;35.73;99773.13;5111411;28;20194;-75
2023/09/03 09:06:45;;;;;;;0.50;0.50;;;;;;;33.11;36.49;99762.84;5115462;27;20183;-74
2023/09/03 09:09:15;;;;;;;0.75;0.50;;;;;;;33.23;36.65;99768.53;5111059;28;20301;-75
2023/09/03 09:11:51;;;;;;;0.70;0.70;;;;;;;33.33;34.96;99765.59;5111071;28;20301;-74
2023/09/03 09:14:23;;;;;;;0.80;0.80;;;;;;;33.42;34.41;99761.84;5114431;27;20190;-74
2023/09/03 09:16:50;;;;;;;1.10;1.10;;;;;;;33.44;35.82;99751.88;5109912;28;20191;-74
2023/09/03 09:19:17;;;;;;;0.90;0.90;;;;;;;33.22;34.04;99762.38;5111305;27;20708;-74
2023/09/03 09:21:44;;;;;;;1.30;0.70;;;;;;;33.26;35.66;99761.03;5111052;28;20214;-75
2023/09/03 09:24:12;;;;;;;0.88;0.88;;;;;;;33.41;34.57;99757.56;5109920;28;20227;-72
2023/09/03 09:26:40;;;;;;;0.73;0.73;;;;;;;33.49;36.26;99760.09;5110845;28;20673;-72
2023/09/03 09:29:08;;;;;;;1.10;0.90;;;;;;;33.53;35.08;99756.91;5111098;28;20209;-74
2023/09/03 09:31:35;;;;;;;0.82;0.82;;;;;;;33.52;34.40;99746.44;5110318;27;20753;-73
2023/09/03 09:34:10;;;;;;;1.05;0.77;;;;;;;33.66;34.80;99746.47;5109804;28;20212;-75
2023/09/03 09:36:53;;;;;;;1.10;1.05;;;;;;;33.67;33.39;99741.94;5107782;28;20199;-74
2023/09/03 09:39:20;;;;;;;0.98;0.98;;;;;;;33.35;33.53;99742.31;5114128;27;20467;-73
2023/09/03 09:41:49;;;;;;;0.70;0.70;;;;;;;33.24;34.58;99733.81;5111655;27;20214;-73
2023/09/03 09:44:15;;;;;;;0.60;0.60;;;;;;;33.11;34.03;99736.28;5110914;28;20191;-74
2023/09/03 09:46:43;;;;;;;1.40;0.90;;;;;;;32.93;34.39;99733.09;5110239;28;20179;-75
2023/09/03 09:49:10;;;;;;;0.98;0.98;;;;;;;33.05;33.96;99726.34;5114333;27;20186;-73
2023/09/03 09:51:38;;;;;;;0.65;0.65;;;;;;;33.17;34.50;99724.91;5114195;27;20766;-73
2023/09/03 09:54:05;;;;;;;0.95;0.95;;;;;;;33.01;33.42;99713.59;5110068;28;20195;-73
2023/09/03 09:56:34;;;;;;;0.70;0.70;;;;;;;33.08;34.63;99706.56;5104477;28;20273;-75
2023/09/03 09:59:03;;;;;;;0.90;0.90;;;;;;;32.89;32.65;99710.59;5109427;28;20205;-73
2023/09/03 10:01:43;;;;;;;0.60;0.60;;;;;;;32.85;33.43;99701.31;5106149;28;20195;-73
2023/09/03 10:04:10;;;;;;;1.05;0.98;;;;;;;33.13;33.38;99697.06;5109706;28;20197;-74
2023/09/03 10:06:38;;;;;;;0.75;0.75;;;;;;;33.38;34.65;99696.78;5111131;28;20244;-74
2023/09/03 10:09:07;;;;;;;0.80;0.80;;;;;;;33.60;34.63;99695.81;5107796;28;20720;-74
2023/09/03 10:11:34;;;;;;;0.77;0.77;;;;;;;33.62;33.53;99685.84;5108792;28;20589;-74
2023/09/03 10:14:02;;;;;;;1.27;0.90;;;;;;;33.58;32.35;99680.03;5110371;28;20187;-74
2023/09/03 10:16:31;;;;;;;0.50;0.50;;;;;;;33.74;33.17;99689.66;5111187;28;20293;-75
2023/09/03 10:19:01;;;;;;;0.90;0.90;;;;;;;33.78;32.43;99685.63;5113419;27;20206;-75
2023/09/03 10:21:30;;;;;;;0.80;0.80;;;;;;;33.82;32.79;99680.75;5109691;27;20685;-74
2023/09/03 10:24:00;;;;;;;0.95;0.95;;;;;;;33.89;31.66;99671.84;5110142;28;20217;-75
2023/09/03 10:26:34;;;;;;;0.70;0.70;;;;;;;34.04;32.11;99672.59;5110464;27;20252;-76
2023/09/03 10:29:06;;;;;;;2.00;1.00;;;;;;;33.94;31.81;99669.41;5110390;28;20210;-75
2023/09/03 10:31:35;;;;;;;0.60;0.60;;;;;;;33.79;33.18;99671.31;5126210;28;20227;-74
2023/09/03 10:34:02;;;;;;;0.60;0.60;;;;;;;33.40;33.16;99666.34;5111010;28;20267;-74
2023/09/03 10:36:32;;;;;;;0.80;0.80;;;;;;;33.10;32.51;99667.38;5111564;28;20271;-75
2023/09/03 10:38:59;;;;;;;0.77;0.77;;;;;;;32.95;33.04;99664.69;5125374;28;20186;-76
2023/09/03 10:41:28;;;;;;;0.70;0.70;;;;;;;32.95;33.76;99662.03;5129294;27;20226;-73
2023/09/03 10:43:56;;;;;;;0.88;0.88;;;;;;;32.87;33.12;99666.59;5110821;28;20186;-74
2023/09/03 10:46:25;;;;;;;1.08;1.08;;;;;;;32.92;33.51;99661.59;5112632;28;20195;-74
2023/09/03 10:48:53;;;;;;;0.70;0.70;;;;;;;33.05;34.68;99659.94;5111394;27;20191;-74
2023/09/03 10:51:40;;;;;;;0.70;0.70;;;;;;;33.36;34.81;99656.25;5118837;28;20187;-76
2023/09/03 10:54:18;;;;;;;0.80;0.80;;;;;;;33.58;35.29;99647.31;5110573;28;20214;-75
2023/09/03 10:57:16;;;;;;;0.70;0.70;;;;;;;33.76;32.01;99645.94;5107911;28;20263;-75
2023/09/03 11:00:13;;;;;;;0.77;0.77;;;;;;;33.85;32.36;99635.97;5110162;27;20197;-75
2023/09/03 11:02:42;;;;;;;0.90;0.90;;;;;;;33.66;33.01;99633.94;5117111;28;20258;-78
2023/09/03 11:05:13;;;;;;;0.80;0.80;;;;;;;33.49;32.08;99638.63;5113220;27;20218;-77
2023/09/03 11:07:40;;;;;;;0.73;0.73;;;;;;;33.62;33.97;99630.00;5109661;28;20221;-76
2023/09/03 11:10:42;;;;;;;0.80;0.80;;;;;;;33.64;31.71;99628.81;5123857;28;20677;-75
2023/09/03 11:13:09;;;;;;;0.85;0.85;;;;;;;33.65;31.86;99621.66;5131220;27;20190;-74
2023/09/03 11:15:37;;;;;;;0.73;0.73;;;;;;;33.61;33.05;99617.72;5112179;27;20237;-75
2023/09/03 11:18:06;;;;;;;1.25;0.90;;;;;;;33.59;33.65;99619.72;5110594;28;20194;-75
2023/09/03 11:20:34;;;;;;;0.60;0.60;;;;;;;33.68;32.99;99615.94;5110366;28;20195;-74
2023/09/03 11:23:02;;;;;;;1.02;0.88;;;;;;;33.74;32.99;99615.19;5110535;28;20203;-75
2023/09/03 11:25:34;;;;;;;0.65;0.65;;;;;;;33.75;33.51;99611.53;5125473;28;20190;-74
2023/09/03 11:28:02;;;;;;;0.77;0.77;;;;;;;33.75;32.74;99614.19;5110145;28;20278;-74
2023/09/03 11:30:30;;;;;;;0.88;0.88;;;;;;;33.87;32.09;99604.69;5110448;28;20202;-74
2023/09/03 11:32:57;;;;;;;0.90;0.90;;;;;;;33.89;32.68;99597.34;5109851;28;20666;-74
2023/09/03 11:35:26;;;;;;;0.90;0.90;;;;;;;33.80;31.96;99598.47;5110292;28;20798;-74
2023/09/03 11:37:54;;;;;;;1.95;0.90;;;;;;;33.57;32.01;99597.81;5109694;28;20282;-74
2023/09/03 11:40:25;;;;;;;1.02;1.02;;;;;;;33.40;32.05;99591.91;5113993;28;20244;-74